Escribe el Código OACI del Aeropuerto

Buscar por Aeropuerto o Ciudad

Información Meteorológica Actual

SCDA | Diego Aracena International Airport

Iquique, Chile

Última Actualización Hace 25 Minutos

Cielo Despejado

21 ºC de Temperatura

Vientos Moderados a Fuertes del SurOeste

Temperatura

21 ºC

Temperatura del Punto de Rocío

12 ºC

Humedad Relativa

56.59 %

Dirección del Viento

SurOeste (220º, Sin Variaciones de Consideración)

Velocidad del Viento

31 km/h (17 kt)

Ráfagas

No Hay

Visibilidad

Sin Reducciones de Consideración

Presión Reducida a Nivel del Mar

1013 hPa (Hectopascales)

Capas de Nubes

No Hay

METAR SCDA 071600Z 22017KT CAVOK 21/12 Q1013

Pronóstico Meteorológico

SCDA | Diego Aracena International Airport

Iquique, Chile

Pronóstico válido para las próximas 20 Horas

A partir de este momento se espera:

Cielo Despejado

Vientos Moderados del SurOeste

En 8 a 10 horas se espera el comienzo de:

Cielo Mayormente Nublado

Vientos Leves del Sur

Temperatura Máxima

22 ºC en 2 Horas

Temperatura Mínima

19 ºC en 17 Horas

TAF SCDA 071016Z 0712/0812 19004KT 9999 FEW030 TX22/0718Z TN19/0809Z BECMG 0714/0716 24015KT CAVOK BECMG 0800/0802 20004KT BKN030